KGNT/GNT METAR and TAF weather

Enter ICAO airport designator
Station Type Date Time Source
KGNT METAR 2020/11/27 13:15 UTC NOAA

KGNT 271315Z AUTO 31007KT 10SM BKN080 OVC095 M05/M11 A3008 RMK AO2 T10511110


Station Type Date Time Source
KGNT Decoded METAR 2020/11/27 13:15 UTC NOAA

GRANTS-MILAN MUNICIPAL AIRPORT , NM, United States (KGNT) 35-10N 107-54W 1987M
Nov 27, 2020 - 08:15 AM EST / 2020.11.27 1315 UTC
Wind: from the NW (310 degrees) at 8 MPH (7 KT):0
Visibility: 10 mile(s):0
Sky conditions: overcast
Temperature: 22.8 F (-5.1 C)
Windchill: 14 F (-10 C):1
Dew Point: 12.2 F (-11.0 C)
Relative Humidity: 63%
Pressure (altimeter): 30.08 in. Hg (1018 hPa)
ob: KGNT 271315Z AUTO 31007KT 10SM BKN080 OVC095 M05/M11 A3008 RMK AO2 T10511110
cycle: 13

Station Type Date Time Source
KGNT TAF UTC NOAA

Error!

Example: see airport list